Time;durP1;ratioP1;P1;durP2;ratioP2;P2;SDS_P1;SDS_P2;PMS_P1;PMS_P2;Temp;Humidity;BMP_temperature;BMP_pressure;BME280_temperature;BME280_humidity;BME280_pressure;Samples;Min_cycle;Max_cycle;Signal;HPM_P1;HPM_P2
2020/12/23 00:00:00;;;;;;;6.35;4.93;;;12.20;82.90;;;;;;5043784;28;20037;-75
2020/12/23 00:02:26;;;;;;;6.53;5.28;;;12.30;82.90;;;;;;5047877;28;20104;-75
2020/12/23 00:04:51;;;;;;;5.65;4.55;;;12.30;82.90;;;;;;5041966;28;20108;-75
2020/12/23 00:07:17;;;;;;;7.10;5.07;;;12.20;82.90;;;;;;5040766;28;20500;-75
2020/12/23 00:09:46;;;;;;;7.00;5.30;;;12.20;82.90;;;;;;5024410;28;20033;-75
2020/12/23 00:12:12;;;;;;;7.18;5.03;;;12.20;82.90;;;;;;5032871;28;20041;-75
2020/12/23 00:14:38;;;;;;;6.43;5.20;;;12.30;82.90;;;;;;5048702;28;20242;-75
2020/12/23 00:17:04;;;;;;;6.95;5.15;;;12.30;82.90;;;;;;5034461;28;20037;-75
2020/12/23 00:19:31;;;;;;;7.05;5.13;;;12.20;82.90;;;;;;5047175;28;20017;-75
2020/12/23 00:21:56;;;;;;;6.45;4.78;;;12.20;82.90;;;;;;5038785;28;20104;-75
2020/12/23 00:24:22;;;;;;;6.60;5.28;;;12.20;82.90;;;;;;5041083;28;20033;-74
2020/12/23 00:26:48;;;;;;;6.57;4.97;;;12.20;83.50;;;;;;5041183;28;20469;-75
2020/12/23 00:29:14;;;;;;;6.85;5.25;;;12.20;82.90;;;;;;5027529;28;20029;-75
2020/12/23 00:31:40;;;;;;;6.78;4.90;;;12.20;82.90;;;;;;5039171;28;20029;-75
2020/12/23 00:34:06;;;;;;;6.30;4.72;;;12.20;82.90;;;;;;5031984;28;20449;-75
2020/12/23 00:36:31;;;;;;;6.20;5.00;;;12.20;82.90;;;;;;5032910;28;20061;-75
2020/12/23 00:38:58;;;;;;;7.82;5.45;;;12.20;82.90;;;;;;5046168;28;20122;-74
2020/12/23 00:41:23;;;;;;;6.68;5.28;;;12.20;82.90;;;;;;5016338;28;20658;-75
2020/12/23 00:43:50;;;;;;;7.18;5.40;;;12.20;82.90;;;;;;5043419;28;20033;-75
2020/12/23 00:46:16;;;;;;;6.88;5.32;;;12.20;82.90;;;;;;5042161;28;20048;-75
2020/12/23 00:48:43;;;;;;;7.03;5.22;;;12.20;82.90;;;;;;5039524;28;20032;-75
2020/12/23 00:51:13;;;;;;;6.80;5.40;;;12.20;82.90;;;;;;5047271;28;20125;-75
2020/12/23 00:53:41;;;;;;;6.85;5.60;;;12.20;83.00;;;;;;5055695;28;20037;-78
2020/12/23 00:56:08;;;;;;;6.60;4.80;;;12.20;82.90;;;;;;5041021;28;20026;-75
2020/12/23 00:58:34;;;;;;;7.22;5.65;;;12.20;83.00;;;;;;5041851;28;20034;-76
2020/12/23 01:01:00;;;;;;;7.60;5.43;;;12.20;83.00;;;;;;5035043;28;20033;-75
2020/12/23 01:03:26;;;;;;;7.45;5.72;;;12.20;83.00;;;;;;5049369;28;20033;-75
2020/12/23 01:05:52;;;;;;;7.53;5.28;;;12.20;83.00;;;;;;5047170;28;20112;-76
2020/12/23 01:08:18;;;;;;;6.57;5.13;;;12.10;82.90;;;;;;5043794;28;20465;-77
2020/12/23 01:10:45;;;;;;;7.00;5.55;;;12.10;82.90;;;;;;5034566;28;20432;-75
2020/12/23 01:13:12;;;;;;;7.47;5.38;;;12.10;82.90;;;;;;5050540;28;20103;-75
2020/12/23 01:15:38;;;;;;;6.57;5.15;;;12.10;82.90;;;;;;5024992;28;20041;-75
2020/12/23 01:18:03;;;;;;;6.85;5.30;;;12.10;82.90;;;;;;5045239;28;20029;-75
2020/12/23 01:20:29;;;;;;;6.93;5.38;;;12.20;83.00;;;;;;5025637;28;20037;-75
2020/12/23 01:22:55;;;;;;;6.30;4.93;;;12.20;83.00;;;;;;5043791;28;20478;-75
2020/12/23 01:25:20;;;;;;;6.65;5.13;;;12.10;82.90;;;;;;5044041;28;20029;-75
2020/12/23 01:27:46;;;;;;;7.55;5.95;;;12.20;83.60;;;;;;5034410;28;20029;-75
2020/12/23 01:30:13;;;;;;;7.13;5.43;;;12.10;82.90;;;;;;5048925;28;20040;-76
2020/12/23 01:32:38;;;;;;;7.45;5.28;;;12.20;83.00;;;;;;5034849;28;20028;-75
2020/12/23 01:35:04;;;;;;;7.28;6.05;;;12.10;82.90;;;;;;5043060;28;20107;-75
2020/12/23 01:37:30;;;;;;;8.15;5.72;;;12.20;83.00;;;;;;5038260;28;20466;-75
2020/12/23 01:39:55;;;;;;;7.30;5.40;;;12.10;82.90;;;;;;5040340;28;20041;-75
2020/12/23 01:42:21;;;;;;;6.47;5.07;;;12.10;83.00;;;;;;5044987;28;20041;-74
2020/12/23 01:44:47;;;;;;;6.45;4.93;;;12.10;82.90;;;;;;5030693;28;20025;-74
2020/12/23 01:47:20;;;;;;;7.80;5.57;;;12.10;82.90;;;;;;5049387;28;20025;-75
2020/12/23 01:49:47;;;;;;;8.02;5.97;;;12.10;83.00;;;;;;5048108;28;20108;-74
2020/12/23 01:52:14;;;;;;;8.18;5.60;;;12.10;82.90;;;;;;5032751;28;20385;-75
2020/12/23 01:54:40;;;;;;;7.03;5.35;;;12.20;83.00;;;;;;5028108;28;20033;-75
2020/12/23 01:57:09;;;;;;;7.45;5.72;;;12.20;83.00;;;;;;5044274;28;20021;-77
2020/12/23 01:59:36;;;;;;;8.00;5.57;;;12.10;82.90;;;;;;5040020;28;20397;-74
2020/12/23 02:02:25;;;;;;;9.00;6.07;;;12.20;83.00;;;;;;5038053;28;20033;-75
2020/12/23 02:04:52;;;;;;;7.53;5.55;;;12.10;83.00;;;;;;5037414;28;20028;-79
2020/12/23 02:07:19;;;;;;;8.55;5.15;;;12.10;82.90;;;;;;5024795;28;20113;-75
2020/12/23 02:09:48;;;;;;;7.57;5.68;;;12.10;83.50;;;;;;5040854;28;20049;-75
2020/12/23 02:12:17;;;;;;;8.02;6.18;;;12.10;82.90;;;;;;5049773;28;20386;-75
2020/12/23 02:14:43;;;;;;;6.82;5.20;;;12.10;82.90;;;;;;5044863;28;20148;-75
2020/12/23 02:17:09;;;;;;;7.55;5.32;;;12.10;82.90;;;;;;5037971;28;20440;-75
2020/12/23 02:19:49;;;;;;;7.93;5.78;;;12.10;82.90;;;;;;5039362;28;20068;-75
2020/12/23 02:22:36;;;;;;;7.53;5.50;;;12.10;82.90;;;;;;5038949;28;20033;-75
2020/12/23 02:25:03;;;;;;;7.97;5.78;;;12.10;82.90;;;;;;5041334;28;20044;-75
2020/12/23 02:27:28;;;;;;;8.27;5.70;;;12.10;82.90;;;;;;5041981;28;20040;-75
2020/12/23 02:29:56;;;;;;;8.63;5.97;;;12.10;83.00;;;;;;5045535;28;20469;-77
2020/12/23 02:32:23;;;;;;;9.02;6.00;;;12.10;82.90;;;;;;5034920;28;20124;-75
2020/12/23 02:34:50;;;;;;;7.50;5.65;;;12.10;82.90;;;;;;5040275;28;20053;-75
2020/12/23 02:37:16;;;;;;;8.90;6.10;;;12.10;83.00;;;;;;5038905;28;20072;-75
2020/12/23 02:39:44;;;;;;;8.23;6.35;;;12.10;83.00;;;;;;5044807;28;20535;-77
2020/12/23 02:42:10;;;;;;;8.07;5.97;;;12.10;83.00;;;;;;5045483;28;20033;-75
2020/12/23 02:44:36;;;;;;;7.10;4.95;;;12.10;82.90;;;;;;5044611;28;20097;-75
2020/12/23 02:47:10;;;;;;;8.02;5.50;;;12.10;82.90;;;;;;5016112;28;20469;-75
2020/12/23 02:49:36;;;;;;;7.90;5.60;;;12.10;83.00;;;;;;5038503;28;20029;-75
2020/12/23 02:52:02;;;;;;;8.55;5.97;;;12.20;83.00;;;;;;5040788;28;20029;-75
2020/12/23 02:54:28;;;;;;;8.75;5.90;;;12.10;82.90;;;;;;5033263;28;20604;-75
2020/12/23 02:56:54;;;;;;;7.28;5.20;;;12.10;82.90;;;;;;5040696;28;20040;-74
2020/12/23 02:59:20;;;;;;;8.38;5.70;;;12.10;83.00;;;;;;5029814;28;20052;-75
2020/12/23 03:01:46;;;;;;;8.20;5.63;;;12.10;82.90;;;;;;5057710;28;20116;-75
2020/12/23 03:04:12;;;;;;;8.15;5.80;;;12.10;82.90;;;;;;5030191;28;20633;-75
2020/12/23 03:06:38;;;;;;;8.05;5.78;;;12.10;83.00;;;;;;5049977;28;20029;-75
2020/12/23 03:09:09;;;;;;;8.52;6.22;;;12.10;83.00;;;;;;5047468;28;20032;-75
2020/12/23 03:11:35;;;;;;;7.72;5.50;;;12.10;83.00;;;;;;5041659;28;20035;-75
2020/12/23 03:14:02;;;;;;;7.97;5.70;;;12.20;83.10;;;;;;5037556;28;20028;-75
2020/12/23 03:16:28;;;;;;;9.00;5.82;;;12.10;83.00;;;;;;5047420;28;20021;-75
2020/12/23 03:18:54;;;;;;;7.85;5.38;;;12.20;83.10;;;;;;5048285;28;20624;-78
2020/12/23 03:21:20;;;;;;;9.85;5.85;;;12.10;83.10;;;;;;5040142;28;20029;-75
2020/12/23 03:23:46;;;;;;;9.20;6.25;;;12.10;83.00;;;;;;5041567;28;20033;-74
2020/12/23 03:26:12;;;;;;;9.15;6.45;;;12.10;83.00;;;;;;5030802;28;20048;-75
2020/12/23 03:28:37;;;;;;;8.43;5.68;;;12.20;83.10;;;;;;5043219;28;20033;-75
2020/12/23 03:31:03;;;;;;;8.93;6.05;;;12.10;83.00;;;;;;5028991;28;20034;-76
2020/12/23 03:33:30;;;;;;;8.90;5.90;;;12.10;83.00;;;;;;5030880;28;20042;-75
2020/12/23 03:35:57;;;;;;;8.10;5.57;;;12.10;83.00;;;;;;5037483;28;20049;-74
2020/12/23 03:38:22;;;;;;;7.90;5.45;;;12.10;83.00;;;;;;5033064;28;20037;-75
2020/12/23 03:40:48;;;;;;;9.23;5.75;;;12.10;83.00;;;;;;5042113;28;20447;-75
2020/12/23 03:43:14;;;;;;;9.75;6.03;;;12.10;83.00;;;;;;5040976;28;20116;-75
2020/12/23 03:45:40;;;;;;;8.80;6.00;;;12.10;83.00;;;;;;5046814;28;20094;-75
2020/12/23 03:48:06;;;;;;;9.07;5.93;;;12.20;83.10;;;;;;5044305;28;20456;-74
2020/12/23 03:50:32;;;;;;;8.98;6.47;;;12.10;83.00;;;;;;5048022;28;20033;-75
2020/12/23 03:52:59;;;;;;;8.77;5.88;;;12.20;83.10;;;;;;5041926;28;20056;-75
2020/12/23 03:55:25;;;;;;;9.15;5.93;;;12.20;83.10;;;;;;5042160;28;20461;-75
2020/12/23 03:57:51;;;;;;;8.48;5.93;;;12.10;83.00;;;;;;5055719;28;20037;-75
2020/12/23 04:00:17;;;;;;;9.68;6.40;;;12.20;83.10;;;;;;5036716;28;20030;-75
2020/12/23 04:02:43;;;;;;;9.07;5.65;;;12.10;83.10;;;;;;5043408;28;20116;-78
2020/12/23 04:05:08;;;;;;;9.35;5.95;;;12.10;83.10;;;;;;5018938;28;20487;-75
2020/12/23 04:07:35;;;;;;;9.63;6.13;;;12.10;83.10;;;;;;5040639;28;20037;-74
2020/12/23 04:10:02;;;;;;;9.93;6.28;;;12.10;83.10;;;;;;5039067;28;20099;-75
2020/12/23 04:12:28;;;;;;;8.90;5.85;;;12.10;83.10;;;;;;5037046;28;20052;-76
2020/12/23 04:14:53;;;;;;;9.98;6.65;;;12.20;83.10;;;;;;5039258;28;20025;-75
2020/12/23 04:17:19;;;;;;;9.27;6.05;;;12.10;83.00;;;;;;5045627;28;20497;-75
2020/12/23 04:19:45;;;;;;;9.60;6.35;;;12.10;83.10;;;;;;5038683;28;20472;-75
2020/12/23 04:22:11;;;;;;;9.38;6.32;;;12.10;83.00;;;;;;5028859;28;20029;-75
2020/12/23 04:24:37;;;;;;;10.93;6.70;;;12.20;83.10;;;;;;5048755;28;20029;-75
2020/12/23 04:27:04;;;;;;;10.30;6.18;;;12.10;83.10;;;;;;5036638;28;20059;-78
2020/12/23 04:29:29;;;;;;;10.13;6.25;;;12.10;83.10;;;;;;5039345;28;20116;-75
2020/12/23 04:31:55;;;;;;;10.23;6.65;;;12.10;83.10;;;;;;5000879;28;20445;-75
2020/12/23 04:34:21;;;;;;;11.85;7.25;;;12.10;83.00;;;;;;5012270;28;20045;-75
2020/12/23 04:36:46;;;;;;;11.80;7.00;;;12.10;83.00;;;;;;5043744;28;20037;-75
2020/12/23 04:39:12;;;;;;;11.18;7.00;;;12.20;83.10;;;;;;5039574;28;20167;-74
2020/12/23 04:41:38;;;;;;;12.52;7.05;;;12.10;83.10;;;;;;5043833;28;20029;-75
2020/12/23 04:44:07;;;;;;;10.13;5.90;;;12.10;83.10;;;;;;5040818;28;20120;-74
2020/12/23 04:46:39;;;;;;;10.98;7.45;;;12.10;83.10;;;;;;5036840;28;20139;-74
2020/12/23 04:49:06;;;;;;;11.00;7.13;;;12.10;83.10;;;;;;5037486;28;20025;-77
2020/12/23 04:51:34;;;;;;;10.95;6.68;;;12.10;83.10;;;;;;5037634;28;20017;-74
2020/12/23 04:54:01;;;;;;;12.27;7.18;;;12.20;83.10;;;;;;5034043;28;20396;-74
2020/12/23 04:56:31;;;;;;;11.15;7.18;;;12.10;83.10;;;;;;5044384;28;20106;-74
2020/12/23 04:58:58;;;;;;;12.32;7.03;;;12.10;83.10;;;;;;5042976;28;20079;-75
2020/12/23 05:01:24;;;;;;;11.25;7.10;;;12.20;83.10;;;;;;5032151;28;20116;-74
2020/12/23 05:03:51;;;;;;;11.85;7.43;;;12.10;83.10;;;;;;5044461;28;20028;-76
2020/12/23 05:06:17;;;;;;;11.10;7.10;;;12.20;83.30;;;;;;5043542;28;20033;-74
2020/12/23 05:08:43;;;;;;;12.07;6.82;;;12.20;83.10;;;;;;5037017;28;20474;-74
2020/12/23 05:11:10;;;;;;;11.18;7.00;;;12.20;83.10;;;;;;5043841;28;20055;-74
2020/12/23 05:13:36;;;;;;;11.35;6.95;;;12.20;83.10;;;;;;5046570;28;20033;-74
2020/12/23 05:16:07;;;;;;;10.55;6.78;;;12.20;83.10;;;;;;5040247;28;20034;-74
2020/12/23 05:18:40;;;;;;;12.07;6.80;;;12.20;83.20;;;;;;5044287;28;20060;-74
2020/12/23 05:21:17;;;;;;;11.95;7.03;;;12.20;83.20;;;;;;5047515;28;20033;-75
2020/12/23 05:23:47;;;;;;;11.25;7.13;;;12.20;83.10;;;;;;5039886;28;20037;-74
2020/12/23 05:26:14;;;;;;;10.10;6.65;;;12.20;83.10;;;;;;5042546;28;20021;-74
2020/12/23 05:28:41;;;;;;;10.88;6.78;;;12.20;83.10;;;;;;5034202;28;20029;-74
2020/12/23 05:31:12;;;;;;;10.80;7.03;;;12.20;83.10;;;;;;5040662;28;20116;-75
2020/12/23 05:33:41;;;;;;;11.90;7.00;;;12.20;83.10;;;;;;5039291;28;20383;-75
2020/12/23 05:36:10;;;;;;;11.35;7.10;;;12.20;83.10;;;;;;5039039;28;20098;-75
2020/12/23 05:38:37;;;;;;;10.18;6.53;;;12.20;83.10;;;;;;5040308;28;20021;-72
2020/12/23 05:41:05;;;;;;;10.88;6.95;;;12.20;83.10;;;;;;5044254;28;20060;-71
2020/12/23 05:43:31;;;;;;;12.50;7.93;;;12.20;83.10;;;;;;5041603;28;20026;-73
2020/12/23 05:45:59;;;;;;;10.38;7.28;;;12.20;83.10;;;;;;5044484;28;20025;-73
2020/12/23 05:48:27;;;;;;;10.52;6.50;;;12.20;83.10;;;;;;5042410;28;20018;-75
2020/12/23 05:50:53;;;;;;;11.43;7.50;;;12.30;83.10;;;;;;5041715;28;20041;-76
2020/12/23 05:53:18;;;;;;;10.73;6.97;;;12.20;83.10;;;;;;5039308;28;20044;-74
2020/12/23 05:55:49;;;;;;;10.63;7.45;;;12.20;83.10;;;;;;5043861;28;20021;-75
2020/12/23 05:58:25;;;;;;;10.30;7.00;;;12.20;83.10;;;;;;5047000;28;20028;-75
2020/12/23 06:00:53;;;;;;;10.52;6.55;;;12.20;83.10;;;;;;5045557;28;20031;-75
2020/12/23 06:03:55;;;;;;;11.30;7.45;;;12.20;83.00;;;;;;5039968;28;20036;-75
2020/12/23 06:06:45;;;;;;;10.35;7.07;;;12.20;83.10;;;;;;5041250;28;20083;-75
2020/12/23 06:09:14;;;;;;;10.80;7.05;;;12.20;83.10;;;;;;5042687;28;20469;-75
2020/12/23 06:11:47;;;;;;;10.63;6.57;;;12.30;83.00;;;;;;5045278;28;20493;-75
2020/12/23 06:14:14;;;;;;;9.57;6.97;;;12.30;83.00;;;;;;5033326;28;20032;-75
2020/12/23 06:17:03;;;;;;;9.18;6.30;;;12.30;83.00;;;;;;5034980;28;20472;-75
2020/12/23 06:19:36;;;;;;;8.98;6.03;;;12.30;83.10;;;;;;5039996;28;21335;-75
2020/12/23 06:22:07;;;;;;;10.27;6.10;;;12.30;83.00;;;;;;5041557;28;20021;-75
2020/12/23 06:24:33;;;;;;;9.25;6.30;;;12.30;83.00;;;;;;5039966;28;20420;-75
2020/12/23 06:27:00;;;;;;;9.30;6.20;;;12.30;82.90;;;;;;5044125;28;20029;-75
2020/12/23 06:29:32;;;;;;;8.10;5.53;;;12.30;82.90;;;;;;5053916;28;20082;-75
2020/12/23 06:32:09;;;;;;;9.00;6.10;;;12.30;83.00;;;;;;5043857;28;20036;-77
2020/12/23 06:34:39;;;;;;;8.82;5.82;;;12.30;83.00;;;;;;5017552;28;20041;-76
2020/12/23 06:37:20;;;;;;;9.85;6.35;;;12.30;82.90;;;;;;5033228;28;20053;-76
2020/12/23 06:39:47;;;;;;;8.10;5.72;;;12.30;83.00;;;;;;5038472;28;20048;-76
2020/12/23 06:42:13;;;;;;;8.98;5.80;;;12.40;82.90;;;;;;5035977;28;20442;-79
2020/12/23 06:44:44;;;;;;;8.13;5.28;;;12.40;82.90;;;;;;5032116;28;20034;-76
2020/12/23 06:47:21;;;;;;;8.85;5.88;;;12.40;83.00;;;;;;5044374;28;20028;-75
2020/12/23 06:49:59;;;;;;;8.95;5.65;;;12.40;83.00;;;;;;5037121;28;20025;-76
2020/12/23 06:52:26;;;;;;;8.35;5.90;;;12.40;82.90;;;;;;5044710;28;20116;-75
2020/12/23 06:55:04;;;;;;;8.00;5.70;;;12.40;82.90;;;;;;5021894;28;20021;-76
2020/12/23 06:57:45;;;;;;;6.75;4.90;;;12.40;82.90;;;;;;5047864;28;20083;-75
2020/12/23 07:00:19;;;;;;;7.60;4.97;;;12.40;82.90;;;;;;5042146;28;20493;-78
2020/12/23 07:02:49;;;;;;;7.25;5.22;;;12.40;82.90;;;;;;5036416;28;20083;-75
2020/12/23 07:05:21;;;;;;;8.32;5.68;;;12.40;82.90;;;;;;5041324;28;20029;-76
2020/12/23 07:07:50;;;;;;;6.80;4.80;;;12.40;82.90;;;;;;5029595;28;20028;-76
2020/12/23 07:10:18;;;;;;;7.68;5.15;;;12.40;82.90;;;;;;5035309;28;20052;-76
2020/12/23 07:13:03;;;;;;;7.65;5.30;;;12.40;82.90;;;;;;5044879;28;20474;-75
2020/12/23 07:15:34;;;;;;;7.25;4.88;;;12.40;82.80;;;;;;5045765;28;20029;-75
2020/12/23 07:18:04;;;;;;;6.80;4.75;;;12.40;82.80;;;;;;5036608;28;20051;-76
2020/12/23 07:20:33;;;;;;;6.82;5.25;;;12.50;82.90;;;;;;5020118;28;20433;-76
2020/12/23 07:23:04;;;;;;;7.25;4.82;;;12.50;82.90;;;;;;5031422;28;20087;-76
2020/12/23 07:25:35;;;;;;;6.28;4.70;;;12.50;82.90;;;;;;5045512;28;20083;-76
2020/12/23 07:28:03;;;;;;;5.90;4.47;;;12.50;82.90;;;;;;5036248;28;20021;-77
2020/12/23 07:30:29;;;;;;;6.30;4.72;;;12.50;82.90;;;;;;5038234;28;20052;-78
2020/12/23 07:33:18;;;;;;;6.97;4.35;;;12.50;82.90;;;;;;5046553;28;20069;-76
2020/12/23 07:35:49;;;;;;;6.15;4.50;;;12.50;82.90;;;;;;5038330;28;20045;-76
2020/12/23 07:38:16;;;;;;;6.55;4.85;;;12.50;82.90;;;;;;5026043;28;20025;-76
2020/12/23 07:40:43;;;;;;;5.93;4.20;;;12.50;82.90;;;;;;5038820;28;20022;-75
2020/12/23 07:43:09;;;;;;;5.60;4.00;;;12.50;82.90;;;;;;5028306;28;20029;-75
2020/12/23 07:45:36;;;;;;;5.78;3.60;;;12.50;82.90;;;;;;5034776;28;20033;-76
2020/12/23 07:48:03;;;;;;;5.72;3.83;;;12.50;82.90;;;;;;5042887;28;20496;-76
2020/12/23 07:50:32;;;;;;;5.25;3.95;;;12.50;82.90;;;;;;5048159;28;20056;-76
2020/12/23 07:52:58;;;;;;;5.97;3.97;;;12.60;82.90;;;;;;5033516;28;20033;-78
2020/12/23 07:55:25;;;;;;;5.70;3.80;;;12.60;82.90;;;;;;5046506;28;20025;-77
2020/12/23 07:57:52;;;;;;;5.22;3.60;;;12.60;82.90;;;;;;5045829;28;20028;-76
2020/12/23 08:00:20;;;;;;;4.75;3.28;;;12.60;82.90;;;;;;5045259;28;20029;-78
2020/12/23 08:02:46;;;;;;;4.90;3.33;;;12.60;82.80;;;;;;5013984;28;20491;-76
2020/12/23 08:05:13;;;;;;;4.90;3.60;;;12.60;82.80;;;;;;5052560;28;20028;-76
2020/12/23 08:07:43;;;;;;;4.13;2.95;;;12.60;82.80;;;;;;5037913;28;20095;-76
2020/12/23 08:10:14;;;;;;;4.47;3.08;;;12.70;82.80;;;;;;5037813;28;20033;-75
2020/12/23 08:12:57;;;;;;;4.55;3.53;;;12.70;82.90;;;;;;5048822;28;20028;-75
2020/12/23 08:15:24;;;;;;;4.10;3.20;;;12.70;82.90;;;;;;5041347;28;20030;-76
2020/12/23 08:18:07;;;;;;;4.53;3.13;;;12.70;82.70;;;;;;5038475;28;20049;-75
2020/12/23 08:20:34;;;;;;;5.18;3.60;;;12.70;82.80;;;;;;5041408;28;20029;-75
2020/12/23 08:23:00;;;;;;;4.95;3.05;;;12.70;82.70;;;;;;5049411;28;20117;-76
2020/12/23 08:25:29;;;;;;;4.07;3.20;;;12.70;82.80;;;;;;5044022;28;20041;-75
2020/12/23 08:28:00;;;;;;;4.40;3.20;;;12.70;82.80;;;;;;5042061;28;20440;-78
2020/12/23 08:30:30;;;;;;;4.05;3.00;;;12.70;82.80;;;;;;5039370;28;20100;-77
2020/12/23 08:33:23;;;;;;;4.63;3.00;;;12.70;82.80;;;;;;5036003;28;20033;-77
2020/12/23 08:35:57;;;;;;;4.43;3.08;;;12.70;82.90;;;;;;5035666;28;20062;-77
2020/12/23 08:38:25;;;;;;;4.28;3.10;;;12.80;82.70;;;;;;5044390;28;20060;-75
2020/12/23 08:40:53;;;;;;;5.13;2.97;;;12.80;82.70;;;;;;5044592;28;20099;-75
2020/12/23 08:43:30;;;;;;;3.90;2.78;;;12.80;82.70;;;;;;5043455;28;20037;-76
2020/12/23 08:46:00;;;;;;;3.88;2.75;;;12.80;82.80;;;;;;5045884;28;20104;-77
2020/12/23 08:48:27;;;;;;;3.78;2.65;;;12.80;82.70;;;;;;5048943;28;20021;-75
2020/12/23 08:50:59;;;;;;;4.55;3.38;;;12.80;82.70;;;;;;5037977;28;20183;-75
2020/12/23 08:53:38;;;;;;;3.28;2.53;;;12.80;82.70;;;;;;5041978;28;20094;-75
2020/12/23 08:56:25;;;;;;;4.15;2.90;;;12.80;82.80;;;;;;5047955;28;20028;-75
2020/12/23 08:58:57;;;;;;;4.13;2.85;;;12.80;82.80;;;;;;5034460;28;20025;-75
2020/12/23 09:01:25;;;;;;;4.32;2.90;;;12.90;82.70;;;;;;5046761;28;20474;-77
2020/12/23 09:04:07;;;;;;;3.50;2.60;;;12.90;82.70;;;;;;5039624;28;20056;-76
2020/12/23 09:06:44;;;;;;;4.20;2.70;;;12.90;82.80;;;;;;5016744;28;20393;-75
2020/12/23 09:09:32;;;;;;;4.30;2.65;;;12.90;82.80;;;;;;5040570;28;20114;-76
2020/12/23 09:11:58;;;;;;;3.28;2.50;;;12.90;82.80;;;;;;5049842;28;20486;-75
2020/12/23 09:14:30;;;;;;;4.22;2.90;;;12.90;82.70;;;;;;5049734;28;20041;-75
2020/12/23 09:17:01;;;;;;;3.65;2.60;;;12.90;82.80;;;;;;5040339;28;20075;-75
2020/12/23 09:19:51;;;;;;;3.22;2.50;;;12.90;82.80;;;;;;5035786;28;20407;-75
2020/12/23 09:22:38;;;;;;;3.33;2.40;;;12.90;82.80;;;;;;5041838;28;20026;-75
2020/12/23 09:25:20;;;;;;;3.03;2.38;;;13.00;82.80;;;;;;5043028;28;20040;-75
2020/12/23 09:27:54;;;;;;;2.83;2.20;;;13.00;82.80;;;;;;5046138;28;20053;-75
2020/12/23 09:30:29;;;;;;;2.90;2.30;;;13.00;82.70;;;;;;5034156;28;20034;-75
2020/12/23 09:32:55;;;;;;;;;;;13.00;82.70;;;;;;5038927;28;20041;-77
2020/12/23 09:35:24;;;;;;;3.40;2.33;;;13.00;82.60;;;;;;5033527;28;19921;-75
2020/12/23 09:38:08;;;;;;;2.78;2.20;;;13.00;82.50;;;;;;5045858;28;20033;-76
2020/12/23 09:40:35;;;;;;;3.38;2.50;;;13.00;82.70;;;;;;5039527;28;20105;-75
2020/12/23 09:43:01;;;;;;;2.67;2.25;;;13.00;82.60;;;;;;5044357;28;20033;-74
2020/12/23 09:45:27;;;;;;;2.97;2.28;;;13.10;82.70;;;;;;5042141;28;20037;-75
2020/12/23 09:47:52;;;;;;;2.80;2.15;;;13.10;82.70;;;;;;5043726;28;20029;-75
2020/12/23 09:50:18;;;;;;;3.50;2.40;;;13.10;82.80;;;;;;5041219;28;20033;-74
2020/12/23 09:52:44;;;;;;;3.28;2.28;;;13.10;82.70;;;;;;5039846;28;20038;-74
2020/12/23 09:55:10;;;;;;;2.70;2.10;;;13.10;82.70;;;;;;5040045;28;20033;-74
2020/12/23 09:57:36;;;;;;;2.17;1.98;;;13.10;82.70;;;;;;5038754;28;20112;-74
2020/12/23 10:00:05;;;;;;;3.33;2.30;;;13.10;82.70;;;;;;5037148;28;20117;-74
2020/12/23 10:02:38;;;;;;;2.67;2.20;;;13.10;82.70;;;;;;5039921;28;20025;-74
2020/12/23 10:05:03;;;;;;;2.67;2.15;;;13.20;82.70;;;;;;5035316;28;20104;-74
2020/12/23 10:07:29;;;;;;;2.78;1.90;;;13.20;82.70;;;;;;5039030;28;20037;-75
2020/12/23 10:09:55;;;;;;;2.50;2.00;;;13.20;82.70;;;;;;5041122;28;20068;-74
2020/12/23 10:12:22;;;;;;;2.33;1.92;;;13.20;82.70;;;;;;5031075;28;20389;-76
2020/12/23 10:14:49;;;;;;;2.22;1.88;;;13.20;82.70;;;;;;5043482;28;20033;-75
2020/12/23 10:17:15;;;;;;;2.10;1.90;;;13.20;82.70;;;;;;5039077;28;20565;-75
2020/12/23 10:19:40;;;;;;;2.22;2.03;;;13.20;82.70;;;;;;5035132;28;20120;-75
2020/12/23 10:22:06;;;;;;;2.35;1.77;;;13.20;82.70;;;;;;5039575;28;20040;-75
2020/12/23 10:24:32;;;;;;;2.63;1.90;;;13.20;82.70;;;;;;5039816;28;20057;-75
2020/12/23 10:26:57;;;;;;;2.80;1.92;;;13.20;82.60;;;;;;5043204;28;20022;-76
2020/12/23 10:29:23;;;;;;;2.47;1.77;;;13.20;82.60;;;;;;5029015;28;20032;-75
2020/12/23 10:31:49;;;;;;;2.22;1.80;;;13.30;82.70;;;;;;5043742;28;20089;-77
2020/12/23 10:34:16;;;;;;;2.30;1.83;;;13.30;82.70;;;;;;5042661;28;20076;-75
2020/12/23 10:36:45;;;;;;;2.22;1.85;;;13.30;82.70;;;;;;5035382;28;20029;-75
2020/12/23 10:39:10;;;;;;;2.50;1.75;;;13.30;82.70;;;;;;5043581;28;20087;-75
2020/12/23 10:41:36;;;;;;;2.10;1.90;;;13.30;82.60;;;;;;5022450;28;20435;-77
2020/12/23 10:44:02;;;;;;;1.90;1.70;;;13.30;82.60;;;;;;5048094;28;20060;-75
2020/12/23 10:46:27;;;;;;;2.53;2.00;;;13.30;82.60;;;;;;5044988;28;20035;-74
2020/12/23 10:48:53;;;;;;;2.03;1.70;;;13.30;82.60;;;;;;5037852;28;20034;-76
2020/12/23 10:51:19;;;;;;;1.85;1.60;;;13.40;82.70;;;;;;5032370;28;20029;-75
2020/12/23 10:53:44;;;;;;;2.50;1.77;;;13.40;82.60;;;;;;5037584;28;20037;-75
2020/12/23 10:56:10;;;;;;;1.90;1.70;;;13.40;82.60;;;;;;5034963;28;20069;-75
2020/12/23 10:58:36;;;;;;;1.75;1.60;;;13.40;82.60;;;;;;5044146;28;20117;-75
2020/12/23 11:01:05;;;;;;;3.08;1.80;;;13.40;82.60;;;;;;5046857;28;20060;-75
2020/12/23 11:03:32;;;;;;;2.55;1.75;;;13.40;82.60;;;;;;5030595;28;20036;-75
2020/12/23 11:05:58;;;;;;;2.50;1.63;;;13.40;82.60;;;;;;5041275;28;20060;-75
2020/12/23 11:08:24;;;;;;;1.92;1.67;;;13.40;82.60;;;;;;5040571;28;20430;-75
2020/12/23 11:10:50;;;;;;;2.05;1.60;;;13.40;82.60;;;;;;5044580;28;20041;-75
2020/12/23 11:13:16;;;;;;;2.47;1.70;;;13.40;82.60;;;;;;5048381;28;20038;-75
2020/12/23 11:15:42;;;;;;;2.05;1.60;;;13.40;82.60;;;;;;5044019;28;20061;-78
2020/12/23 11:18:07;;;;;;;1.95;1.60;;;13.50;82.60;;;;;;5043113;28;20115;-75
2020/12/23 11:20:33;;;;;;;2.00;1.60;;;13.50;82.60;;;;;;5049240;28;20032;-74
2020/12/23 11:22:59;;;;;;;2.28;1.80;;;13.50;82.60;;;;;;5044179;28;20657;-74
2020/12/23 11:25:24;;;;;;;1.85;1.65;;;13.40;82.60;;;;;;5045732;28;20037;-75
2020/12/23 11:27:50;;;;;;;2.28;1.80;;;13.50;82.60;;;;;;5044635;28;20061;-75
2020/12/23 11:30:16;;;;;;;1.77;1.63;;;13.50;82.60;;;;;;5040211;28;20041;-74
2020/12/23 11:32:41;;;;;;;1.92;1.65;;;13.50;82.60;;;;;;5039077;28;20470;-75
2020/12/23 11:35:07;;;;;;;1.92;1.60;;;13.50;82.60;;;;;;5029772;28;20132;-74
2020/12/23 11:37:33;;;;;;;2.67;1.60;;;13.50;82.60;;;;;;5040041;28;20548;-76
2020/12/23 11:39:59;;;;;;;2.63;1.98;;;13.50;82.60;;;;;;5040932;28;20052;-76
2020/12/23 11:42:25;;;;;;;2.13;1.80;;;13.50;82.60;;;;;;5039215;28;20033;-78
2020/12/23 11:44:50;;;;;;;2.60;1.83;;;13.50;82.60;;;;;;5039082;28;20035;-76
2020/12/23 11:47:17;;;;;;;2.10;1.77;;;13.50;82.70;;;;;;5039790;28;20029;-75
2020/12/23 11:49:43;;;;;;;3.85;2.10;;;13.50;82.70;;;;;;5040818;28;20033;-78
2020/12/23 11:52:09;;;;;;;2.55;2.05;;;13.60;82.70;;;;;;5038256;28;20469;-76
2020/12/23 11:54:36;;;;;;;2.35;1.77;;;13.60;82.70;;;;;;5029798;28;20034;-75
2020/12/23 11:57:02;;;;;;;3.25;1.90;;;13.60;82.70;;;;;;5038535;28;20413;-76
2020/12/23 11:59:28;;;;;;;2.33;1.75;;;13.60;82.80;;;;;;5038945;28;20034;-78
2020/12/23 12:01:54;;;;;;;2.60;1.90;;;13.60;82.70;;;;;;5029631;28;20496;-75
2020/12/23 12:04:20;;;;;;;2.92;2.00;;;13.60;82.70;;;;;;5039168;28;20040;-77
2020/12/23 12:06:46;;;;;;;2.45;1.85;;;13.60;82.70;;;;;;5039102;28;20037;-74
2020/12/23 12:09:12;;;;;;;2.45;1.95;;;13.60;82.70;;;;;;5037568;28;20486;-74
2020/12/23 12:11:38;;;;;;;2.85;1.98;;;13.60;82.70;;;;;;5044729;28;20184;-77
2020/12/23 12:14:04;;;;;;;3.40;2.10;;;13.60;82.70;;;;;;5042482;28;20040;-76
2020/12/23 12:16:30;;;;;;;2.70;2.10;;;13.60;82.70;;;;;;5044917;28;20029;-76
2020/12/23 12:18:56;;;;;;;3.05;2.00;;;13.60;82.70;;;;;;5046813;28;20031;-77
2020/12/23 12:21:27;;;;;;;2.95;1.75;;;13.60;83.30;;;;;;5043060;28;20087;-80
2020/12/23 12:23:52;;;;;;;2.38;1.80;;;13.60;83.40;;;;;;5039769;28;20569;-77
2020/12/23 12:26:18;;;;;;;2.33;1.80;;;13.60;82.80;;;;;;5037201;28;20065;-76
2020/12/23 12:28:44;;;;;;;2.63;1.70;;;13.60;82.90;;;;;;5039293;28;20477;-76
2020/12/23 12:31:10;;;;;;;2.15;1.83;;;13.60;82.90;;;;;;5039528;28;20128;-77
2020/12/23 12:33:35;;;;;;;1.98;1.58;;;13.70;82.90;;;;;;5047575;28;20037;-76
2020/12/23 12:36:01;;;;;;;2.65;1.85;;;13.70;82.90;;;;;;5036211;28;20049;-79
2020/12/23 12:38:27;;;;;;;2.30;1.80;;;13.70;82.80;;;;;;5042010;28;20041;-77
2020/12/23 12:40:52;;;;;;;1.98;1.73;;;13.70;82.80;;;;;;5042066;28;20040;-76
2020/12/23 12:43:18;;;;;;;1.75;1.60;;;13.70;82.80;;;;;;5041299;28;20247;-76
2020/12/23 12:45:44;;;;;;;1.95;1.58;;;13.70;82.80;;;;;;5045243;28;20017;-76
2020/12/23 12:48:09;;;;;;;2.40;1.70;;;13.70;82.80;;;;;;5045322;28;20114;-77
2020/12/23 12:50:35;;;;;;;2.95;1.90;;;13.70;82.80;;;;;;5043287;28;20043;-76